createdAt,value
2023-04-16T00:01:59.008Z,9.20
2023-04-16T00:04:26.168Z,9.20
2023-04-16T00:06:53.012Z,9.20
2023-04-16T00:09:19.853Z,9.20
2023-04-16T00:11:46.606Z,9.20
2023-04-16T00:14:13.314Z,9.20
2023-04-16T00:16:40.089Z,9.20
2023-04-16T00:19:06.932Z,9.20
2023-04-16T00:21:33.849Z,9.20
2023-04-16T00:24:00.634Z,9.20
2023-04-16T00:26:27.365Z,9.20
2023-04-16T00:28:54.208Z,9.20
2023-04-16T00:31:32.058Z,9.20
2023-04-16T00:33:59.432Z,9.20
2023-04-16T00:36:27.938Z,9.20
2023-04-16T00:38:56.055Z,9.20
2023-04-16T00:41:23.525Z,9.20
2023-04-16T00:43:51.431Z,9.20
2023-04-16T00:46:20.356Z,9.20
2023-04-16T00:48:47.620Z,9.20
2023-04-16T00:51:15.250Z,9.20
2023-04-16T00:53:44.399Z,9.20
2023-04-16T00:56:12.854Z,9.20
2023-04-16T00:58:39.921Z,9.20
2023-04-16T01:01:06.841Z,9.10
2023-04-16T01:03:39.796Z,9.20
2023-04-16T01:06:07.546Z,9.20
2023-04-16T01:08:34.399Z,9.20
2023-04-16T01:11:01.781Z,9.20
2023-04-16T01:13:28.763Z,9.20
2023-04-16T01:15:55.645Z,9.20
2023-04-16T01:18:23.504Z,9.20
2023-04-16T01:20:51.343Z,9.20
2023-04-16T01:23:19.131Z,9.20
2023-04-16T01:25:47.007Z,9.20
2023-04-16T01:28:13.835Z,9.20
2023-04-16T01:30:40.648Z,9.20
2023-04-16T01:33:27.703Z,9.10
2023-04-16T01:35:54.608Z,9.10
2023-04-16T01:38:21.441Z,9.00
2023-04-16T01:40:48.139Z,9.00
2023-04-16T01:43:14.989Z,9.00
2023-04-16T01:45:42.523Z,9.00
2023-04-16T01:48:09.568Z,9.00
2023-04-16T01:50:36.349Z,9.00
2023-04-16T01:53:05.004Z,9.00
2023-04-16T01:55:33.827Z,8.90
2023-04-16T01:58:00.678Z,8.90
2023-04-16T02:00:30.986Z,9.00
2023-04-16T02:02:59.356Z,8.90
2023-04-16T02:05:28.277Z,9.00
2023-04-16T02:07:54.959Z,9.00
2023-04-16T02:10:22.142Z,8.90
2023-04-16T02:12:48.973Z,8.90
2023-04-16T02:15:16.301Z,8.90
2023-04-16T02:17:43.401Z,8.90
2023-04-16T02:20:11.237Z,8.90
2023-04-16T02:22:48.239Z,8.90
2023-04-16T02:25:18.739Z,8.90
2023-04-16T02:27:45.871Z,8.90
2023-04-16T02:30:34.812Z,8.90
2023-04-16T02:33:05.350Z,8.80
2023-04-16T02:35:37.360Z,8.80
2023-04-16T02:38:05.054Z,8.80
2023-04-16T02:40:32.331Z,8.60
2023-04-16T02:42:59.814Z,8.70
2023-04-16T02:45:27.477Z,8.60
2023-04-16T02:47:54.264Z,8.60
2023-04-16T02:50:21.179Z,8.60
2023-04-16T02:52:49.038Z,8.60
2023-04-16T02:55:16.148Z,8.50
2023-04-16T02:57:43.084Z,8.50
2023-04-16T03:00:10.474Z,8.50
2023-04-16T03:02:37.325Z,8.50
2023-04-16T03:05:04.790Z,8.40
2023-04-16T03:07:31.477Z,8.30
2023-04-16T03:09:58.262Z,8.30
2023-04-16T03:12:25.695Z,8.20
2023-04-16T03:14:52.663Z,8.30
2023-04-16T03:17:19.617Z,8.10
2023-04-16T03:19:46.402Z,8.10
2023-04-16T03:22:13.588Z,8.20
2023-04-16T03:24:40.579Z,8.20
2023-04-16T03:27:07.368Z,8.20
2023-04-16T03:29:37.328Z,8.20
2023-04-16T03:32:04.828Z,8.20
2023-04-16T03:34:32.070Z,8.20
2023-04-16T03:36:58.887Z,8.10
2023-04-16T03:39:25.702Z,8.10
2023-04-16T03:41:52.484Z,8.30
2023-04-16T03:44:19.205Z,8.20
2023-04-16T03:46:46.137Z,8.30
2023-04-16T03:49:13.002Z,8.20
2023-04-16T03:51:39.734Z,8.20
2023-04-16T03:54:06.428Z,8.20
2023-04-16T03:56:33.472Z,8.20
2023-04-16T03:59:00.490Z,8.20
2023-04-16T04:01:27.469Z,8.10
2023-04-16T04:03:54.570Z,8.00
2023-04-16T04:06:21.455Z,8.10
2023-04-16T04:08:48.438Z,8.10
2023-04-16T04:11:15.307Z,8.10
2023-04-16T04:13:43.629Z,8.00
2023-04-16T04:16:10.628Z,8.10
2023-04-16T04:18:37.387Z,8.10
2023-04-16T04:21:08.991Z,8.00
2023-04-16T04:23:36.242Z,8.00
2023-04-16T04:26:05.394Z,8.00
2023-04-16T04:28:33.084Z,8.00
2023-04-16T04:31:00.759Z,8.00
2023-04-16T04:33:28.905Z,8.00
2023-04-16T04:35:55.774Z,8.00
2023-04-16T04:38:25.155Z,7.90
2023-04-16T04:40:52.948Z,7.90
2023-04-16T04:43:21.548Z,7.80
2023-04-16T04:45:49.311Z,7.70
2023-04-16T04:48:16.680Z,7.80
2023-04-16T04:50:46.022Z,7.70
2023-04-16T04:53:14.871Z,7.60
2023-04-16T04:55:41.885Z,7.50
2023-04-16T04:58:09.141Z,7.60
2023-04-16T05:00:36.996Z,7.60
2023-04-16T05:03:07.086Z,7.60
2023-04-16T05:05:33.939Z,7.60
2023-04-16T05:08:00.879Z,7.60
2023-04-16T05:10:27.922Z,7.60
2023-04-16T05:12:54.624Z,7.50
2023-04-16T05:15:21.532Z,7.50
2023-04-16T05:17:48.278Z,7.50
2023-04-16T05:20:15.118Z,7.50
2023-04-16T05:22:41.868Z,7.50
2023-04-16T05:25:08.890Z,7.50
2023-04-16T05:27:36.237Z,7.60
2023-04-16T05:30:03.362Z,7.50
2023-04-16T05:32:30.306Z,7.50
2023-04-16T05:34:57.091Z,7.50
2023-04-16T05:37:23.852Z,7.50
2023-04-16T05:39:50.634Z,7.60
2023-04-16T05:42:17.574Z,7.60
2023-04-16T05:44:44.277Z,7.50
2023-04-16T05:47:10.987Z,7.60
2023-04-16T05:49:37.713Z,7.60
2023-04-16T05:52:05.358Z,7.50
2023-04-16T05:54:32.100Z,7.70
2023-04-16T05:57:01.539Z,7.60
2023-04-16T05:59:29.187Z,7.70
2023-04-16T06:01:56.122Z,7.70
2023-04-16T06:04:22.951Z,7.80
2023-04-16T06:06:49.678Z,7.70
2023-04-16T06:09:16.630Z,7.80
2023-04-16T06:11:43.452Z,7.80
2023-04-16T06:14:10.871Z,7.80
2023-04-16T06:16:37.549Z,7.80
2023-04-16T06:19:04.344Z,7.80
2023-04-16T06:21:31.724Z,7.80
2023-04-16T06:23:58.469Z,7.80
2023-04-16T06:26:25.725Z,7.90
2023-04-16T06:28:52.466Z,8.00
2023-04-16T06:31:19.222Z,8.00
2023-04-16T06:33:45.922Z,8.00
2023-04-16T06:36:12.698Z,8.00
2023-04-16T06:38:39.473Z,8.10
2023-04-16T06:41:06.210Z,8.10
2023-04-16T06:43:33.704Z,8.10
2023-04-16T06:46:00.556Z,8.10
2023-04-16T06:48:27.581Z,8.10
2023-04-16T06:50:55.969Z,8.10
2023-04-16T06:53:24.090Z,8.20
2023-04-16T06:55:50.812Z,8.20
2023-04-16T06:58:17.620Z,8.20
2023-04-16T07:00:44.997Z,8.20
2023-04-16T07:03:12.204Z,8.20
2023-04-16T07:05:39.129Z,8.20
2023-04-16T07:08:06.047Z,8.20
2023-04-16T07:10:32.818Z,8.10
2023-04-16T07:13:01.486Z,8.10
2023-04-16T07:15:29.308Z,8.20
2023-04-16T07:17:56.170Z,8.20
2023-04-16T07:20:22.946Z,8.30
2023-04-16T07:22:49.748Z,8.30
2023-04-16T07:25:16.574Z,8.30
2023-04-16T07:27:43.326Z,8.20
2023-04-16T07:30:10.707Z,8.30
2023-04-16T07:32:37.469Z,8.30
2023-04-16T07:35:04.383Z,8.40
2023-04-16T07:37:31.508Z,8.50
2023-04-16T07:39:58.478Z,8.50
2023-04-16T07:42:25.245Z,8.60
2023-04-16T07:44:51.942Z,8.60
2023-04-16T07:47:18.764Z,8.60
2023-04-16T07:49:45.670Z,8.60
2023-04-16T07:52:12.551Z,8.60
2023-04-16T07:54:39.236Z,8.80
2023-04-16T07:57:05.953Z,8.90
2023-04-16T07:59:32.809Z,8.80
2023-04-16T08:01:59.735Z,8.70
2023-04-16T08:04:27.302Z,8.70
2023-04-16T08:06:54.623Z,8.70
2023-04-16T08:09:26.463Z,8.60
2023-04-16T08:11:53.210Z,8.60
2023-04-16T08:14:20.536Z,8.70
2023-04-16T08:16:47.277Z,8.80
2023-04-16T08:19:13.988Z,9.00
2023-04-16T08:21:41.117Z,9.20
2023-04-16T08:24:08.143Z,9.10
2023-04-16T08:26:35.347Z,9.10
2023-04-16T08:29:02.050Z,9.20
2023-04-16T08:31:28.910Z,9.20
2023-04-16T08:33:55.670Z,9.50
2023-04-16T08:36:22.364Z,9.70
2023-04-16T08:38:49.084Z,9.70
2023-04-16T08:41:16.212Z,9.90
2023-04-16T08:43:47.612Z,10.00
2023-04-16T08:46:17.509Z,10.10
2023-04-16T08:48:46.131Z,10.10
2023-04-16T08:51:14.492Z,10.10
2023-04-16T08:53:59.354Z,10.10
2023-04-16T08:56:27.138Z,10.00
2023-04-16T08:58:55.094Z,10.00
2023-04-16T09:01:22.726Z,10.10
2023-04-16T09:03:49.702Z,10.00
2023-04-16T09:06:17.396Z,9.80
2023-04-16T09:08:46.198Z,9.80
2023-04-16T09:11:18.274Z,9.70
2023-04-16T09:13:46.658Z,9.50
2023-04-16T09:16:14.486Z,9.50
2023-04-16T09:18:41.412Z,9.70
2023-04-16T09:21:13.128Z,9.70
2023-04-16T09:23:40.771Z,9.70
2023-04-16T09:26:07.585Z,9.70
2023-04-16T09:28:47.911Z,9.60
2023-04-16T09:31:16.448Z,9.60
2023-04-16T09:33:44.712Z,9.70
2023-04-16T09:36:11.465Z,9.60
2023-04-16T09:38:49.189Z,9.60
2023-04-16T09:41:16.620Z,9.50
2023-04-16T09:43:56.818Z,9.50
2023-04-16T09:46:44.688Z,9.40
2023-04-16T09:49:16.807Z,9.40
2023-04-16T09:51:44.952Z,9.40
2023-04-16T09:54:11.897Z,9.40
2023-04-16T09:56:42.761Z,9.50
2023-04-16T09:59:17.714Z,9.40
2023-04-16T10:01:46.734Z,9.40
2023-04-16T10:04:13.621Z,9.50
2023-04-16T10:06:40.444Z,9.60
2023-04-16T10:09:09.205Z,9.70
2023-04-16T10:11:36.300Z,9.80
2023-04-16T10:14:03.310Z,9.70
2023-04-16T10:16:32.922Z,9.70
2023-04-16T10:18:59.932Z,9.70
2023-04-16T10:21:33.555Z,9.70
2023-04-16T10:24:00.706Z,9.80
2023-04-16T10:26:29.371Z,9.90
2023-04-16T10:28:58.229Z,10.00
2023-04-16T10:31:25.846Z,9.90
2023-04-16T10:33:52.957Z,9.80
2023-04-16T10:36:29.128Z,9.80
2023-04-16T10:39:00.679Z,9.80
2023-04-16T10:41:27.835Z,9.70
2023-04-16T10:44:09.606Z,9.70
2023-04-16T10:46:44.532Z,9.70
2023-04-16T10:49:15.780Z,9.70
2023-04-16T10:51:42.534Z,9.70
2023-04-16T10:54:09.938Z,9.70
2023-04-16T10:56:37.624Z,9.80
2023-04-16T10:59:09.961Z,9.60
2023-04-16T11:01:48.402Z,9.70
2023-04-16T11:04:21.920Z,9.80
2023-04-16T11:07:03.306Z,9.80
2023-04-16T11:09:42.382Z,9.80
2023-04-16T11:12:12.497Z,9.90
2023-04-16T11:14:41.242Z,9.80
2023-04-16T11:17:08.566Z,9.80
2023-04-16T11:19:38.846Z,9.70
2023-04-16T11:22:05.906Z,9.60
2023-04-16T11:24:33.071Z,9.60
2023-04-16T11:27:00.186Z,9.70
2023-04-16T11:29:27.083Z,9.60
2023-04-16T11:31:55.413Z,9.50
2023-04-16T11:34:22.227Z,9.60
2023-04-16T11:36:50.868Z,9.60
2023-04-16T11:39:18.583Z,9.60
2023-04-16T11:41:49.644Z,9.70
2023-04-16T11:44:27.327Z,9.70
2023-04-16T11:46:54.631Z,9.70
2023-04-16T11:49:31.015Z,9.70
2023-04-16T11:51:58.760Z,9.80
2023-04-16T11:54:25.935Z,9.80
2023-04-16T11:56:53.671Z,9.70
2023-04-16T11:59:22.942Z,9.50
2023-04-16T12:01:51.732Z,9.60
2023-04-16T12:04:20.550Z,9.50
2023-04-16T12:07:07.498Z,9.60
2023-04-16T12:09:37.935Z,9.60
2023-04-16T12:12:24.874Z,9.40
2023-04-16T12:14:52.111Z,9.40
2023-04-16T12:17:22.116Z,9.50
2023-04-16T12:20:06.931Z,9.50
2023-04-16T12:22:38.441Z,9.60
2023-04-16T12:25:07.562Z,9.50
2023-04-16T12:27:46.907Z,9.50
2023-04-16T12:30:15.618Z,9.60
2023-04-16T12:32:44.011Z,9.70
2023-04-16T12:35:11.826Z,9.70
2023-04-16T12:37:39.586Z,9.70
2023-04-16T12:40:07.100Z,9.70
2023-04-16T12:42:37.277Z,9.60
2023-04-16T12:45:05.399Z,9.60
2023-04-16T12:47:32.952Z,9.50
2023-04-16T12:49:59.807Z,9.40
2023-04-16T12:52:27.791Z,9.40
2023-04-16T12:54:54.681Z,9.30
2023-04-16T12:57:21.626Z,9.20
2023-04-16T12:59:48.365Z,9.20
2023-04-16T13:02:15.403Z,9.20
2023-04-16T13:04:42.271Z,9.20
2023-04-16T13:07:09.074Z,9.20
2023-04-16T13:09:37.699Z,9.20
2023-04-16T13:12:06.280Z,9.00
2023-04-16T13:14:32.982Z,9.00
2023-04-16T13:16:59.729Z,9.10
2023-04-16T13:19:26.652Z,9.10
2023-04-16T13:21:53.738Z,9.20
2023-04-16T13:24:20.591Z,9.20
2023-04-16T13:26:47.387Z,9.20
2023-04-16T13:29:14.121Z,9.20
2023-04-16T13:31:41.140Z,9.40
2023-04-16T13:34:07.862Z,9.40
2023-04-16T13:36:35.266Z,9.50
2023-04-16T13:39:04.664Z,9.60
2023-04-16T13:41:31.792Z,9.60
2023-04-16T13:43:58.647Z,9.70
2023-04-16T13:46:26.496Z,9.70
2023-04-16T13:48:53.758Z,9.80
2023-04-16T13:51:20.560Z,9.80
2023-04-16T13:53:47.447Z,10.00
2023-04-16T13:56:14.376Z,9.90
2023-04-16T13:58:41.689Z,10.00
2023-04-16T14:01:09.500Z,10.10
2023-04-16T14:03:38.418Z,10.10
2023-04-16T14:06:05.520Z,10.20
2023-04-16T14:08:32.343Z,10.20
2023-04-16T14:10:59.212Z,10.30
2023-04-16T14:13:26.128Z,10.30
2023-04-16T14:15:55.934Z,10.20
2023-04-16T14:18:22.748Z,10.30
2023-04-16T14:20:49.476Z,10.40
2023-04-16T14:23:16.243Z,10.60
2023-04-16T14:25:42.928Z,10.60
2023-04-16T14:28:09.642Z,10.80
2023-04-16T14:30:36.372Z,10.90
2023-04-16T14:33:06.883Z,11.00
2023-04-16T14:35:34.451Z,11.10
2023-04-16T14:38:01.533Z,11.30
2023-04-16T14:40:28.402Z,11.50
2023-04-16T14:42:55.148Z,11.70
2023-04-16T14:45:22.005Z,11.90
2023-04-16T14:47:49.920Z,12.10
2023-04-16T14:50:16.884Z,12.50
2023-04-16T14:52:43.649Z,12.80
2023-04-16T14:55:10.509Z,12.70
2023-04-16T14:57:38.426Z,12.60
2023-04-16T15:00:12.103Z,12.50
2023-04-16T15:02:39.082Z,12.40
2023-04-16T15:05:07.784Z,12.40
2023-04-16T15:07:34.616Z,12.20
2023-04-16T15:10:01.363Z,12.00
2023-04-16T15:12:28.086Z,12.00
2023-04-16T15:14:54.854Z,12.00
2023-04-16T15:17:21.672Z,11.90
2023-04-16T15:19:48.579Z,11.80
2023-04-16T15:22:15.437Z,11.80
2023-04-16T15:24:42.180Z,11.80
2023-04-16T15:27:11.604Z,11.80
2023-04-16T15:29:38.771Z,11.90
2023-04-16T15:32:06.941Z,11.90
2023-04-16T15:34:33.834Z,11.90
2023-04-16T15:37:00.780Z,11.90
2023-04-16T15:39:27.619Z,11.80
2023-04-16T15:42:01.148Z,11.70
2023-04-16T15:44:30.943Z,11.50
2023-04-16T15:46:57.684Z,11.50
2023-04-16T15:49:24.772Z,11.60
2023-04-16T15:51:52.155Z,11.70
2023-04-16T15:54:19.168Z,11.50
2023-04-16T15:56:46.663Z,11.50
2023-04-16T15:59:13.795Z,11.50
2023-04-16T16:01:41.073Z,11.50
2023-04-16T16:04:08.304Z,11.50
2023-04-16T16:06:35.844Z,11.50
2023-04-16T16:09:02.616Z,11.50
2023-04-16T16:11:29.398Z,11.50
2023-04-16T16:13:56.529Z,11.40
2023-04-16T16:16:23.313Z,11.40
2023-04-16T16:18:50.082Z,11.40
2023-04-16T16:21:16.959Z,11.40
2023-04-16T16:23:43.720Z,11.40
2023-04-16T16:26:10.461Z,11.40
2023-04-16T16:28:38.106Z,11.40
2023-04-16T16:31:06.850Z,11.40
2023-04-16T16:33:33.688Z,11.40
2023-04-16T16:36:00.511Z,11.40
2023-04-16T16:38:27.734Z,11.40
2023-04-16T16:40:54.440Z,11.40
2023-04-16T16:43:21.410Z,11.40
2023-04-16T16:45:48.870Z,11.40
2023-04-16T16:48:15.538Z,11.30
2023-04-16T16:50:42.268Z,11.30
2023-04-16T16:53:09.185Z,11.30
2023-04-16T16:55:35.970Z,11.30
2023-04-16T16:58:04.147Z,11.30
2023-04-16T17:00:31.120Z,11.30
2023-04-16T17:02:57.982Z,11.40
2023-04-16T17:05:24.971Z,11.30
2023-04-16T17:07:51.855Z,11.30
2023-04-16T17:10:21.385Z,11.30
2023-04-16T17:12:48.871Z,11.30
2023-04-16T17:15:16.896Z,11.30
2023-04-16T17:17:44.720Z,11.30
2023-04-16T17:20:12.399Z,11.20
2023-04-16T17:22:40.048Z,11.30
2023-04-16T17:25:08.104Z,11.20
2023-04-16T17:27:35.111Z,11.10
2023-04-16T17:30:03.049Z,11.10
2023-04-16T17:32:32.287Z,11.00
2023-04-16T17:35:00.919Z,10.90
2023-04-16T17:37:27.932Z,11.00
2023-04-16T17:39:54.750Z,11.00
2023-04-16T17:42:21.656Z,11.10
2023-04-16T17:44:48.407Z,11.10
2023-04-16T17:47:15.230Z,11.00
2023-04-16T17:49:42.180Z,10.90
2023-04-16T17:52:08.976Z,10.80
2023-04-16T17:54:35.820Z,10.70
2023-04-16T17:57:02.598Z,10.70
2023-04-16T17:59:29.328Z,10.70
2023-04-16T18:01:56.681Z,10.70
2023-04-16T18:04:23.677Z,10.60
2023-04-16T18:06:50.672Z,10.70
2023-04-16T18:09:19.078Z,10.70
2023-04-16T18:11:45.964Z,10.50
2023-04-16T18:14:16.604Z,10.50
2023-04-16T18:16:43.447Z,10.60
2023-04-16T18:19:10.129Z,10.60
2023-04-16T18:21:36.839Z,10.50
2023-04-16T18:24:03.802Z,10.40
2023-04-16T18:26:31.166Z,10.40
2023-04-16T18:29:00.382Z,10.30
2023-04-16T18:31:27.536Z,10.40
2023-04-16T18:33:57.951Z,10.30
2023-04-16T18:36:26.605Z,10.30
2023-04-16T18:39:01.558Z,10.40
2023-04-16T18:41:29.726Z,10.30
2023-04-16T18:43:56.782Z,10.20
2023-04-16T18:46:23.609Z,10.30
2023-04-16T18:48:50.565Z,10.20
2023-04-16T18:51:17.280Z,10.10
2023-04-16T18:53:45.709Z,10.10
2023-04-16T18:56:12.859Z,10.00
2023-04-16T18:58:39.696Z,10.00
2023-04-16T19:01:11.056Z,10.00
2023-04-16T19:03:38.777Z,10.00
2023-04-16T19:06:06.494Z,10.00
2023-04-16T19:08:33.245Z,9.80
2023-04-16T19:11:00.118Z,9.80
2023-04-16T19:13:26.979Z,9.90
2023-04-16T19:16:01.604Z,9.90
2023-04-16T19:18:28.702Z,9.90
2023-04-16T19:21:01.830Z,9.90
2023-04-16T19:23:28.744Z,10.00
2023-04-16T19:25:56.695Z,9.90
2023-04-16T19:28:24.356Z,9.90
2023-04-16T19:30:52.072Z,9.90
2023-04-16T19:33:18.981Z,9.90
2023-04-16T19:35:46.602Z,9.80
2023-04-16T19:38:13.323Z,9.70
2023-04-16T19:40:41.008Z,9.70
2023-04-16T19:43:07.881Z,9.80
2023-04-16T19:45:35.065Z,9.80
2023-04-16T19:48:02.006Z,9.80
2023-04-16T19:50:28.802Z,9.70
2023-04-16T19:52:55.536Z,9.60
2023-04-16T19:55:22.711Z,9.60
2023-04-16T19:57:49.621Z,9.60
2023-04-16T20:00:17.035Z,9.60
2023-04-16T20:02:43.879Z,9.60
2023-04-16T20:05:11.179Z,9.60
2023-04-16T20:07:37.981Z,9.60
2023-04-16T20:10:05.372Z,9.60
2023-04-16T20:12:32.085Z,9.60
2023-04-16T20:14:58.954Z,9.70
2023-04-16T20:17:25.972Z,9.60
2023-04-16T20:19:52.774Z,9.60
2023-04-16T20:22:19.626Z,9.60
2023-04-16T20:24:49.245Z,9.60
2023-04-16T20:27:16.900Z,9.60
2023-04-16T20:29:43.716Z,9.50
2023-04-16T20:32:10.632Z,9.40
2023-04-16T20:34:37.949Z,9.50
2023-04-16T20:37:04.904Z,9.50
2023-04-16T20:39:34.111Z,9.40
2023-04-16T20:42:04.309Z,9.40
2023-04-16T20:44:40.469Z,9.40
2023-04-16T20:47:11.652Z,9.50
2023-04-16T20:49:38.419Z,9.40
2023-04-16T20:52:07.132Z,9.40
2023-04-16T20:54:33.831Z,9.40
2023-04-16T20:57:01.906Z,9.20
2023-04-16T20:59:29.807Z,9.20
2023-04-16T21:01:56.601Z,9.10
2023-04-16T21:04:23.689Z,9.00
2023-04-16T21:06:53.338Z,9.00
2023-04-16T21:09:20.748Z,9.00
2023-04-16T21:11:47.580Z,9.00
2023-04-16T21:14:14.531Z,9.00
2023-04-16T21:16:41.323Z,9.00
2023-04-16T21:19:08.839Z,9.00
2023-04-16T21:21:36.615Z,9.00
2023-04-16T21:24:03.473Z,9.00
2023-04-16T21:26:30.244Z,9.20
2023-04-16T21:28:57.008Z,9.20
2023-04-16T21:31:23.791Z,9.10
2023-04-16T21:33:50.602Z,9.00
2023-04-16T21:36:17.396Z,9.00
2023-04-16T21:38:44.080Z,9.00
2023-04-16T21:41:11.288Z,9.00
2023-04-16T21:43:38.023Z,9.00
2023-04-16T21:46:04.770Z,9.00
2023-04-16T21:48:31.492Z,9.00
2023-04-16T21:51:00.953Z,9.00
2023-04-16T21:53:32.008Z,9.00
2023-04-16T21:55:59.064Z,8.90
2023-04-16T21:58:25.896Z,8.90
2023-04-16T22:00:52.969Z,9.00
2023-04-16T22:03:26.223Z,9.00
2023-04-16T22:06:04.108Z,9.00
2023-04-16T22:08:31.041Z,9.00
2023-04-16T22:11:02.463Z,9.00
2023-04-16T22:13:32.285Z,9.00
2023-04-16T22:16:02.521Z,8.90
2023-04-16T22:18:32.835Z,8.90
2023-04-16T22:20:59.859Z,8.90
2023-04-16T22:23:26.574Z,8.90
2023-04-16T22:25:55.804Z,8.90
2023-04-16T22:28:23.179Z,8.90
2023-04-16T22:30:50.026Z,8.90
2023-04-16T22:33:16.905Z,8.90
2023-04-16T22:35:43.654Z,8.90
2023-04-16T22:38:10.727Z,8.90
2023-04-16T22:40:37.514Z,8.90
2023-04-16T22:43:04.853Z,8.90
2023-04-16T22:45:31.657Z,8.90
2023-04-16T22:47:58.542Z,8.90
2023-04-16T22:50:25.524Z,8.90
2023-04-16T22:52:52.234Z,8.90
2023-04-16T22:55:19.111Z,8.90
2023-04-16T22:57:45.908Z,8.80
2023-04-16T23:00:17.554Z,8.60
2023-04-16T23:02:44.611Z,8.60
2023-04-16T23:05:11.743Z,8.50
2023-04-16T23:07:38.781Z,8.40
2023-04-16T23:10:06.187Z,8.40
2023-04-16T23:12:32.916Z,8.30
2023-04-16T23:15:00.885Z,8.30
2023-04-16T23:17:27.985Z,8.30
2023-04-16T23:19:54.932Z,8.30
2023-04-16T23:22:21.746Z,8.30
2023-04-16T23:24:48.515Z,8.30
2023-04-16T23:27:15.453Z,8.40
2023-04-16T23:29:42.246Z,8.30
2023-04-16T23:32:09.011Z,8.30
2023-04-16T23:34:35.753Z,8.40
2023-04-16T23:37:02.564Z,8.50
2023-04-16T23:39:29.286Z,8.50
2023-04-16T23:41:57.492Z,8.50
2023-04-16T23:44:24.373Z,8.50
2023-04-16T23:46:51.408Z,8.50
2023-04-16T23:49:18.134Z,8.50
2023-04-16T23:51:44.909Z,8.50
2023-04-16T23:54:11.588Z,8.50
2023-04-16T23:56:38.380Z,8.50
2023-04-16T23:59:05.201Z,8.50
